Terminal Aerodrome Forecast
Issued by NWS Northern Indiana

Home | Current Version | Previous Version | Text Only | Print | Product List | Glossary Off
Versions: 1 2 3 4 5 6 7 8 9 10 11 12 13 14 15

000
FTUS43 KIWX 291700
TAFFWA
TAF
KFWA 291720Z 2918/3018 28012G18KT P6SM OVC040
     FM300000 29006KT P6SM BKN040
     FM300600 VRB02KT P6SM SKC
     FM301600 22005KT P6SM BKN150=

USA.gov is the U.S. government's official web portal to all federal, state and local government web resources and services.